Terminal Aerodrome Forecast
Issued by NWS Midland/Odessa, TX

Home | Current Version | Previous Version | Text Only | Print | Product List | Glossary On
Versions: 1 2 3 4 5 6 7 8 9 10 11 12 13 14 15 16 17
000
FTUS44 KMAF 310500
TAFMAF
TAF
KMAF 310520Z 3106/0106 10012KT P6SM -RA OVC030
     FM310800 12010KT 5SM -RA BR FEW006 OVC010
     FM312000 17007KT P6SM -RA OVC025=

USA.gov is the U.S. government's official web portal to all federal, state and local government web resources and services.